Pagrindinis puslapis
METAR-TAF:

METAR-TAF

Oro uostai :

Tirgu Murešas, Rumunija

platuma: 46-32N, ilguma: 024-32E, Aukštis: 308 m

Dabartinis oras

Ataskaita buvo paskelbta 38 minutes, ne 11:00 UTC
Vėjas 4 kt iš Rytų/Šiaurės Rytų, svyruoja nuo Šiaurės/Šiaurės Rytų ir Rytų/Pietryčių
Temperatūra 1°C
Drėgmė 69%
Slėgis 1024 hPa
Matomumas: 8000 m
Mažai debesys ne aukštis 800 ft

METAR: LRTM 251100Z 07004KT 030V110 8000 FEW008 01/M04 Q1024 R07/19//95

Laikas: 13:38 (11:38 UTC)

Prognozė

Ataskaita buvo paskelbta 3 valandos ir 38 minutes, ne 08:00 UTC
Prognozė galioja nuo 25 metu 09 UTC su 25 metu 18 UTC
Vėjas 4 kt nuo kintamojo kryptimis
Matomumas: 5000 m
rūkana
Tapsmas
nuo 25 metu 09 UTC su 25 metu 11 UTC
Matomumas 10 km arba daugiau

TAF: LRTM 250800Z 2509/2518 VRB04KT 5000 BR NSC BECMG 2509/2511 9999 NSW

Orai ataskaitas ir orų prognozės (METAR, TAF).

turimą stotys yra geltonos ir raudonos taškus žemėlapyje.

Perkelti pele per norėdami pamatyti stoties vardą.

Tada spustelėkite, norėdami matyti oro stebėjimo ir prognozės.

Norėdami pakeisti žemėlapį: spustelėkite ant žalios mygtukų su juodo kryžiaus žemyn,; žalią mygtuką su brūkšneliu, jei norite nutolinti; arba žalių rodyklių gretimoms žemėlapius.


METAR-TAF: